DLH8537 EDDP-LEMD
Flight info
| Callsign | DLH8537 |
|---|---|
| Flight time | N/A |
| Altitude | 36000 |
| Route | NEVKO2N NEVKO Q243 BAMKI Z94 KOMIB DCT TEDGO/N0452F350 N869 NATOR DCT LUTIX DCT BENOT DCT NEMOS DCT NINTU/N0457F330 DCT MEBAK/N0454F350 DCT REPSI DCT LERGA DCT MINSO DCT NARAK DCT AGN DCT MAQAB DCT TIVLI N869 ZAR Z245 TERSA |
| Aircraft | A306/H-SDE3FGHIRWY/LB1 |
Departure
| Time | 2026-05-03 20:52 |
|---|---|
| Airport | Leipzig/Halle Airport (EDDP) |
Arrival
| Time | N/A |
|---|---|
| Airport | Adolfo Suárez Madrid–Barajas Airport (LEMD) |
| Time | Latitude | Longitude | Altitude | Speed | Heading |
|---|---|---|---|---|---|
| 2026-05-03 20:35 | 51.41866 | 12.22259 | 442 ft | 0 kts | 15° |
| 2026-05-03 20:36 | 51.41859 | 12.22256 | 429 ft | 4 kts | 15° |
| 2026-05-03 20:36 | 51.41833 | 12.22244 | 429 ft | 4 kts | 15° |
| 2026-05-03 20:36 | 51.41808 | 12.22231 | 426 ft | 4 kts | 30° |
| 2026-05-03 20:37 | 51.41788 | 12.22204 | 426 ft | 4 kts | 60° |
| 2026-05-03 20:37 | 51.41782 | 12.22169 | 428 ft | 2 kts | 105° |
| 2026-05-03 20:37 | 51.41784 | 12.22160 | 430 ft | 0 kts | 105° |
| 2026-05-03 20:42 | 51.41783 | 12.22165 | 442 ft | 3 kts | 105° |
| 2026-05-03 20:42 | 51.41770 | 12.22240 | 442 ft | 11 kts | 105° |
| 2026-05-03 20:42 | 51.41742 | 12.22398 | 436 ft | 17 kts | 106° |
| 2026-05-03 20:42 | 51.41706 | 12.22597 | 450 ft | 20 kts | 106° |
| 2026-05-03 20:43 | 51.41665 | 12.22817 | 459 ft | 22 kts | 107° |
| 2026-05-03 20:43 | 51.41628 | 12.23009 | 465 ft | 0 kts | 107° |
| 2026-05-03 20:44 | 51.41627 | 12.23017 | 466 ft | 2 kts | 105° |
| 2026-05-03 20:44 | 51.41622 | 12.23062 | 467 ft | 6 kts | 98° |
| 2026-05-03 20:44 | 51.41617 | 12.23148 | 470 ft | 10 kts | 95° |
| 2026-05-03 20:45 | 51.41610 | 12.23287 | 467 ft | 15 kts | 94° |
| 2026-05-03 20:45 | 51.41612 | 12.23487 | 469 ft | 20 kts | 82° |
| 2026-05-03 20:45 | 51.41634 | 12.23725 | 478 ft | 23 kts | 82° |
| 2026-05-03 20:45 | 51.41629 | 12.23941 | 479 ft | 19 kts | 88° |
| 2026-05-03 20:46 | 51.41638 | 12.24173 | 478 ft | 23 kts | 84° |
| 2026-05-03 20:46 | 51.41657 | 12.24447 | 482 ft | 26 kts | 85° |
| 2026-05-03 20:46 | 51.41670 | 12.24697 | 483 ft | 24 kts | 75° |
| 2026-05-03 20:46 | 51.41797 | 12.24824 | 486 ft | 23 kts | 13° |
| 2026-05-03 20:47 | 51.41951 | 12.24881 | 497 ft | 23 kts | 17° |
| 2026-05-03 20:47 | 51.42115 | 12.24950 | 493 ft | 26 kts | 12° |
| 2026-05-03 20:47 | 51.42319 | 12.25018 | 482 ft | 34 kts | 11° |
| 2026-05-03 20:47 | 51.42571 | 12.25096 | 471 ft | 40 kts | 10° |
| 2026-05-03 20:48 | 51.42837 | 12.25197 | 460 ft | 33 kts | 19° |
| 2026-05-03 20:48 | 51.42950 | 12.25261 | 456 ft | 9 kts | 19° |
| 2026-05-03 20:48 | 51.42978 | 12.25324 | 456 ft | 8 kts | 70° |
| 2026-05-03 20:48 | 51.42991 | 12.25443 | 457 ft | 14 kts | 84° |
| 2026-05-03 20:49 | 51.43003 | 12.25633 | 457 ft | 21 kts | 84° |
| 2026-05-03 20:49 | 51.43014 | 12.25890 | 459 ft | 25 kts | 88° |
| 2026-05-03 20:49 | 51.43026 | 12.26197 | 458 ft | 30 kts | 85° |
| 2026-05-03 20:49 | 51.43044 | 12.26548 | 461 ft | 34 kts | 85° |
| 2026-05-03 20:50 | 51.43113 | 12.26890 | 465 ft | 31 kts | 28° |
| 2026-05-03 20:50 | 51.43241 | 12.26891 | 466 ft | 10 kts | 323° |
| 2026-05-03 20:50 | 51.43301 | 12.26777 | 462 ft | 17 kts | 301° |
| 2026-05-03 20:50 | 51.43354 | 12.26574 | 460 ft | 22 kts | 281° |
| 2026-05-03 20:51 | 51.43350 | 12.26323 | 457 ft | 24 kts | 268° |
| 2026-05-03 20:51 | 51.43345 | 12.26031 | 456 ft | 28 kts | 269° |
| 2026-05-03 20:51 | 51.43314 | 12.25576 | 456 ft | 70 kts | 264° |
| 2026-05-03 20:51 | 51.43265 | 12.24461 | 449 ft | 129 kts | 267° |
| 2026-05-03 20:52 | 51.43187 | 12.22775 | 477 ft | 173 kts | 267° |
| 2026-05-03 20:52 | 51.43086 | 12.20824 | 1082 ft | 178 kts | 266° |
| 2026-05-03 20:52 | 51.43021 | 12.18830 | 1881 ft | 176 kts | 271° |
| 2026-05-03 20:52 | 51.43013 | 12.16793 | 2573 ft | 188 kts | 268° |
| 2026-05-03 20:53 | 51.42897 | 12.14647 | 3219 ft | 199 kts | 264° |
| 2026-05-03 20:53 | 51.42756 | 12.12386 | 3887 ft | 208 kts | 264° |
| 2026-05-03 20:53 | 51.42621 | 12.10041 | 4571 ft | 216 kts | 264° |
| 2026-05-03 20:53 | 51.42485 | 12.07516 | 4970 ft | 242 kts | 263° |
| 2026-05-03 20:54 | 51.42339 | 12.04731 | 5711 ft | 254 kts | 263° |
| 2026-05-03 20:54 | 51.42042 | 11.99033 | 7666 ft | 263 kts | 259° |
| 2026-05-03 20:54 | 51.41571 | 11.96205 | 8610 ft | 263 kts | 240° |
| 2026-05-03 20:55 | 51.40471 | 11.93908 | 9598 ft | 261 kts | 217° |
| 2026-05-03 20:55 | 51.38971 | 11.92284 | 10484 ft | 265 kts | 209° |
| 2026-05-03 20:55 | 51.37313 | 11.90760 | 10899 ft | 285 kts | 208° |
| 2026-05-03 20:55 | 51.35524 | 11.89144 | 11226 ft | 305 kts | 208° |
| 2026-05-03 20:56 | 51.33622 | 11.87412 | 11536 ft | 323 kts | 209° |
| 2026-05-03 20:56 | 51.31619 | 11.85574 | 11874 ft | 339 kts | 209° |
| 2026-05-03 20:56 | 51.29546 | 11.83665 | 12389 ft | 348 kts | 209° |
| 2026-05-03 20:56 | 51.27436 | 11.81720 | 13047 ft | 352 kts | 210° |
| 2026-05-03 20:57 | 51.25334 | 11.79661 | 13725 ft | 356 kts | 214° |
| 2026-05-03 20:57 | 51.23364 | 11.77320 | 14311 ft | 360 kts | 217° |
| 2026-05-03 20:57 | 51.21381 | 11.74840 | 14876 ft | 364 kts | 218° |
| 2026-05-03 20:57 | 51.19377 | 11.72325 | 15452 ft | 369 kts | 218° |
| 2026-05-03 20:58 | 51.17346 | 11.69782 | 16021 ft | 373 kts | 218° |
| 2026-05-03 20:58 | 51.15289 | 11.67212 | 16600 ft | 378 kts | 218° |
| 2026-05-03 20:58 | 51.13206 | 11.64617 | 17178 ft | 382 kts | 218° |
| 2026-05-03 20:58 | 51.11100 | 11.61996 | 17744 ft | 387 kts | 218° |
| 2026-05-03 20:59 | 51.08967 | 11.59347 | 18286 ft | 391 kts | 218° |
| 2026-05-03 20:59 | 51.06814 | 11.56676 | 18759 ft | 395 kts | 218° |
| 2026-05-03 20:59 | 51.04644 | 11.53987 | 19244 ft | 398 kts | 218° |